createdAt,value
2019-01-14T00:02:23.103Z,93.20
2019-01-14T00:04:55.613Z,93.20
2019-01-14T00:07:27.377Z,93.10
2019-01-14T00:09:59.114Z,93.50
2019-01-14T00:12:30.581Z,93.20
2019-01-14T00:15:06.329Z,93.60
2019-01-14T00:17:37.878Z,93.20
2019-01-14T00:20:13.886Z,93.10
2019-01-14T00:22:45.295Z,93.00
2019-01-14T00:25:16.643Z,93.00
2019-01-14T00:27:47.959Z,93.10
2019-01-14T00:30:19.242Z,93.10
2019-01-14T00:32:50.649Z,93.30
2019-01-14T00:35:21.963Z,93.00
2019-01-14T00:37:53.541Z,93.00
2019-01-14T00:40:24.858Z,93.00
2019-01-14T00:42:56.343Z,92.90
2019-01-14T00:45:27.628Z,92.80
2019-01-14T00:47:58.929Z,92.80
2019-01-14T00:50:30.191Z,92.80
2019-01-14T00:53:01.523Z,92.80
2019-01-14T00:55:32.845Z,92.70
2019-01-14T00:58:04.158Z,92.70
2019-01-14T01:00:35.550Z,92.80
2019-01-14T01:03:06.980Z,92.80
2019-01-14T01:05:38.270Z,92.80
2019-01-14T01:08:09.608Z,92.70
2019-01-14T01:10:41.036Z,92.70
2019-01-14T01:13:12.625Z,92.60
2019-01-14T01:15:43.924Z,92.60
2019-01-14T01:18:15.425Z,92.60
2019-01-14T01:20:47.118Z,92.50
2019-01-14T01:23:18.758Z,92.50
2019-01-14T01:25:50.036Z,92.40
2019-01-14T01:28:21.646Z,92.40
2019-01-14T01:30:52.964Z,92.40
2019-01-14T01:33:24.675Z,92.40
2019-01-14T01:35:56.091Z,92.30
2019-01-14T01:38:27.482Z,92.30
2019-01-14T01:40:58.793Z,92.30
2019-01-14T01:43:30.119Z,92.30
2019-01-14T01:46:01.562Z,92.20
2019-01-14T01:48:32.850Z,92.20
2019-01-14T01:51:04.137Z,92.20
2019-01-14T01:53:35.641Z,92.20
2019-01-14T01:56:06.980Z,92.20
2019-01-14T01:58:38.299Z,92.20
2019-01-14T02:01:09.631Z,92.10
2019-01-14T02:03:40.905Z,92.00
2019-01-14T02:06:12.210Z,91.90
2019-01-14T02:08:43.497Z,92.00
2019-01-14T02:11:15.175Z,92.00
2019-01-14T02:13:47.511Z,92.00
2019-01-14T02:16:18.877Z,92.00
2019-01-14T02:18:51.495Z,91.90
2019-01-14T02:21:22.901Z,91.90
2019-01-14T02:23:55.989Z,91.80
2019-01-14T02:26:27.333Z,91.90
2019-01-14T02:28:58.670Z,91.90
2019-01-14T02:31:29.964Z,91.90
2019-01-14T02:34:01.349Z,91.80
2019-01-14T02:36:32.785Z,91.90
2019-01-14T02:39:06.462Z,92.30
2019-01-14T02:41:37.803Z,92.10
2019-01-14T02:44:09.094Z,92.20
2019-01-14T02:46:40.438Z,92.10
2019-01-14T02:49:11.748Z,92.20
2019-01-14T02:51:43.051Z,92.20
2019-01-14T02:54:14.490Z,92.20
2019-01-14T02:56:45.874Z,92.30
2019-01-14T02:59:17.276Z,92.30
2019-01-14T03:01:48.590Z,92.30
2019-01-14T03:04:19.883Z,92.30
2019-01-14T03:06:57.722Z,92.30
2019-01-14T03:09:24.479Z,92.30
2019-01-14T03:11:55.860Z,92.30
2019-01-14T03:14:27.129Z,92.30
2019-01-14T03:16:58.450Z,92.20
2019-01-14T03:24:58.168Z,92.20
2019-01-14T03:27:29.526Z,92.10
2019-01-14T03:30:00.985Z,92.00
2019-01-14T03:32:32.263Z,92.00
2019-01-14T03:35:05.776Z,92.00
2019-01-14T03:37:37.146Z,92.00
2019-01-14T03:40:11.974Z,92.00
2019-01-14T03:42:43.240Z,92.00
2019-01-14T03:45:14.546Z,92.00
2019-01-14T03:47:45.846Z,92.10
2019-01-14T03:50:19.525Z,92.10
2019-01-14T03:52:50.788Z,92.10
2019-01-14T03:55:22.105Z,92.20
2019-01-14T03:57:53.448Z,92.20
2019-01-14T04:00:24.783Z,92.20
2019-01-14T04:02:56.092Z,92.10
2019-01-14T04:05:27.501Z,92.10
2019-01-14T04:07:58.879Z,92.10
2019-01-14T04:10:30.373Z,92.10
2019-01-14T04:13:01.692Z,91.90
2019-01-14T04:15:33.095Z,91.90
2019-01-14T04:18:04.673Z,91.90
2019-01-14T04:20:35.981Z,92.10
2019-01-14T04:23:07.351Z,92.40
2019-01-14T04:25:39.869Z,92.60
2019-01-14T04:28:11.174Z,92.90
2019-01-14T04:30:43.807Z,93.00
2019-01-14T04:33:15.160Z,93.20
2019-01-14T04:35:46.527Z,93.30
2019-01-14T04:38:17.806Z,93.40
2019-01-14T04:40:49.120Z,93.60
2019-01-14T04:43:20.425Z,93.60
2019-01-14T04:45:51.784Z,93.70
2019-01-14T04:48:23.085Z,93.90
2019-01-14T04:50:54.351Z,93.90
2019-01-14T04:53:25.834Z,94.00
2019-01-14T04:55:57.157Z,94.10
2019-01-14T04:58:28.580Z,94.20
2019-01-14T05:00:59.933Z,94.20
2019-01-14T05:03:31.254Z,94.30
2019-01-14T05:06:02.566Z,94.30
2019-01-14T05:08:33.849Z,94.40
2019-01-14T05:11:05.270Z,94.40
2019-01-14T05:13:36.808Z,94.60
2019-01-14T05:16:08.136Z,94.40
2019-01-14T05:18:39.526Z,94.40
2019-01-14T05:21:11.352Z,94.30
2019-01-14T05:26:14.238Z,94.30
2019-01-14T05:29:04.367Z,94.50
2019-01-14T05:31:35.699Z,94.60
2019-01-14T05:34:06.971Z,94.70
2019-01-14T05:36:38.317Z,94.90
2019-01-14T05:39:09.613Z,94.70
2019-01-14T05:41:40.940Z,94.50
2019-01-14T05:44:12.216Z,94.40
2019-01-14T05:46:43.754Z,94.40
2019-01-14T05:49:18.250Z,94.40
2019-01-14T05:51:49.554Z,94.40
2019-01-14T05:54:20.944Z,94.40
2019-01-14T05:56:52.288Z,94.40
2019-01-14T05:59:42.139Z,94.40
2019-01-14T06:02:13.445Z,94.70
2019-01-14T06:04:44.894Z,94.80
2019-01-14T06:07:16.158Z,94.90
2019-01-14T06:09:47.489Z,95.00
2019-01-14T06:12:18.767Z,95.00
2019-01-14T06:14:50.062Z,94.90
2019-01-14T06:17:21.361Z,95.00
2019-01-14T06:19:53.377Z,94.90
2019-01-14T06:22:24.799Z,94.90
2019-01-14T06:24:56.103Z,95.00
2019-01-14T06:27:27.503Z,95.00
2019-01-14T06:29:58.790Z,95.00
2019-01-14T06:32:30.264Z,94.90
2019-01-14T06:35:01.592Z,95.00
2019-01-14T06:37:34.474Z,94.90
2019-01-14T06:40:10.970Z,95.00
2019-01-14T06:42:42.264Z,94.90
2019-01-14T06:45:13.896Z,95.00
2019-01-14T06:50:18.137Z,94.80
2019-01-14T06:52:49.421Z,95.10
2019-01-14T06:55:20.745Z,95.00
2019-01-14T06:57:52.051Z,95.10
2019-01-14T07:00:29.117Z,95.10
2019-01-14T07:03:00.531Z,95.10
2019-01-14T07:05:32.003Z,95.10
2019-01-14T07:08:03.316Z,95.00
2019-01-14T07:10:34.638Z,94.90
2019-01-14T07:13:05.921Z,94.90
2019-01-14T07:15:37.267Z,95.00
2019-01-14T07:18:08.558Z,95.40
2019-01-14T07:20:39.887Z,94.90
2019-01-14T07:23:11.191Z,94.80
2019-01-14T07:25:42.575Z,94.80
2019-01-14T07:28:13.847Z,94.80
2019-01-14T07:30:45.246Z,94.90
2019-01-14T07:33:16.558Z,94.90
2019-01-14T07:35:47.849Z,94.90
2019-01-14T07:38:21.172Z,94.90
2019-01-14T07:40:52.590Z,94.90
2019-01-14T07:43:24.456Z,94.90
2019-01-14T07:45:55.763Z,94.90
2019-01-14T07:48:27.102Z,94.90
2019-01-14T07:50:58.552Z,94.90
2019-01-14T07:53:29.880Z,94.90
2019-01-14T07:56:01.340Z,94.80
2019-01-14T07:58:33.016Z,94.80
2019-01-14T08:01:04.347Z,94.70
2019-01-14T08:03:35.665Z,94.70
2019-01-14T08:06:06.976Z,94.60
2019-01-14T08:08:38.245Z,94.60
2019-01-14T08:11:09.557Z,94.50
2019-01-14T08:13:40.968Z,94.30
2019-01-14T08:16:12.343Z,94.30
2019-01-14T08:18:43.638Z,94.30
2019-01-14T08:21:15.057Z,94.30
2019-01-14T08:23:46.303Z,94.30
2019-01-14T08:26:17.706Z,94.30
2019-01-14T08:28:49.034Z,94.30
2019-01-14T08:31:20.293Z,94.30
2019-01-14T08:33:51.553Z,94.20
2019-01-14T08:36:22.878Z,94.40
2019-01-14T08:38:54.399Z,94.40
2019-01-14T08:41:45.993Z,94.50
2019-01-14T08:44:18.121Z,94.60
2019-01-14T08:46:49.460Z,94.70
2019-01-14T08:49:20.803Z,94.70
2019-01-14T08:51:52.138Z,94.70
2019-01-14T08:54:23.459Z,94.70
2019-01-14T08:59:44.475Z,94.80
2019-01-14T09:02:15.775Z,94.80
2019-01-14T09:04:47.051Z,94.80
2019-01-14T09:07:18.427Z,94.80
2019-01-14T09:09:49.698Z,94.80
2019-01-14T09:12:21.043Z,94.80
2019-01-14T09:14:52.305Z,94.80
2019-01-14T09:17:23.667Z,94.80
2019-01-14T09:19:54.979Z,95.00
2019-01-14T09:25:16.040Z,95.30
2019-01-14T09:27:47.347Z,95.30
2019-01-14T09:30:21.126Z,95.30
2019-01-14T09:32:52.451Z,95.10
2019-01-14T09:35:23.741Z,94.50
2019-01-14T09:37:55.050Z,94.30
2019-01-14T09:40:26.498Z,94.30
2019-01-14T09:42:57.787Z,94.40
2019-01-14T09:45:29.088Z,94.40
2019-01-14T09:48:00.463Z,94.30
2019-01-14T09:50:31.716Z,94.30
2019-01-14T09:53:03.051Z,94.30
2019-01-14T09:55:34.446Z,94.40
2019-01-14T09:58:05.808Z,94.40
2019-01-14T10:00:37.230Z,94.50
2019-01-14T10:03:08.543Z,94.50
2019-01-14T10:05:39.779Z,94.60
2019-01-14T10:08:11.098Z,94.60
2019-01-14T10:10:42.564Z,94.60
2019-01-14T10:13:13.891Z,94.60
2019-01-14T10:15:45.166Z,94.70
2019-01-14T10:18:16.588Z,94.70
2019-01-14T10:20:48.019Z,94.70
2019-01-14T10:23:19.329Z,94.60
2019-01-14T10:25:50.811Z,94.60
2019-01-14T10:28:22.103Z,94.70
2019-01-14T10:30:53.528Z,94.70
2019-01-14T10:33:24.804Z,94.80
2019-01-14T10:35:56.101Z,94.70
2019-01-14T10:38:27.398Z,94.70
2019-01-14T10:40:58.715Z,94.60
2019-01-14T10:43:30.046Z,94.50
2019-01-14T10:46:01.336Z,94.50
2019-01-14T10:48:32.753Z,94.20
2019-01-14T10:51:04.056Z,94.30
2019-01-14T10:53:35.400Z,94.10
2019-01-14T10:56:06.659Z,94.00
2019-01-14T10:58:37.984Z,93.90
2019-01-14T11:01:09.276Z,93.90
2019-01-14T11:03:40.686Z,93.60
2019-01-14T11:06:11.980Z,93.70
2019-01-14T11:08:45.338Z,93.20
2019-01-14T11:11:16.701Z,92.70
2019-01-14T11:13:48.023Z,88.60
2019-01-14T11:16:19.453Z,87.80
2019-01-14T11:18:50.756Z,90.30
2019-01-14T11:21:22.111Z,91.40
2019-01-14T11:23:53.566Z,92.50
2019-01-14T11:26:24.954Z,93.50
2019-01-14T11:28:56.258Z,94.10
2019-01-14T11:31:27.547Z,94.30
2019-01-14T11:33:58.899Z,94.40
2019-01-14T11:36:30.209Z,94.90
2019-01-14T11:39:05.119Z,94.70
2019-01-14T11:41:34.934Z,94.70
2019-01-14T11:44:06.341Z,94.80
2019-01-14T11:46:37.650Z,95.00
2019-01-14T11:49:08.964Z,95.10
2019-01-14T11:51:40.300Z,95.20
2019-01-14T11:54:11.701Z,95.30
2019-01-14T11:56:43.190Z,95.30
2019-01-14T11:59:14.496Z,95.10
2019-01-14T12:01:45.871Z,94.90
2019-01-14T12:04:17.232Z,94.60
2019-01-14T12:06:48.542Z,94.70
2019-01-14T12:09:19.865Z,95.00
2019-01-14T12:11:51.136Z,94.50
2019-01-14T12:14:22.613Z,94.30
2019-01-14T12:16:53.962Z,94.30
2019-01-14T12:19:25.316Z,94.00
2019-01-14T12:21:56.603Z,93.80
2019-01-14T12:24:28.041Z,93.70
2019-01-14T12:26:59.327Z,93.80
2019-01-14T12:29:30.667Z,93.80
2019-01-14T12:32:01.962Z,93.90
2019-01-14T12:34:33.260Z,94.00
2019-01-14T12:37:04.573Z,94.10
2019-01-14T12:39:35.897Z,94.10
2019-01-14T12:42:07.256Z,94.10
2019-01-14T12:44:38.552Z,93.90
2019-01-14T12:47:09.805Z,93.60
2019-01-14T12:49:41.156Z,93.00
2019-01-14T12:52:12.558Z,92.80
2019-01-14T12:54:43.980Z,92.90
2019-01-14T12:57:15.267Z,92.70
2019-01-14T12:59:46.623Z,92.70
2019-01-14T13:02:17.953Z,92.70
2019-01-14T13:04:49.280Z,92.90
2019-01-14T13:07:20.671Z,92.80
2019-01-14T13:09:51.963Z,92.90
2019-01-14T13:12:23.262Z,93.00
2019-01-14T13:14:54.606Z,93.00
2019-01-14T13:17:25.934Z,93.10
2019-01-14T13:19:57.208Z,93.10
2019-01-14T13:22:28.532Z,93.20
2019-01-14T13:24:59.908Z,93.20
2019-01-14T13:27:31.299Z,93.40
2019-01-14T13:30:08.352Z,93.70
2019-01-14T13:32:39.655Z,93.70
2019-01-14T13:35:11.055Z,93.50
2019-01-14T13:37:42.409Z,93.30
2019-01-14T13:40:13.978Z,93.10
2019-01-14T13:42:45.337Z,93.00
2019-01-14T13:45:19.430Z,93.20
2019-01-14T13:47:50.769Z,93.50
2019-01-14T13:53:13.726Z,93.10
2019-01-14T13:55:45.293Z,93.20
2019-01-14T13:58:16.680Z,93.30
2019-01-14T14:00:47.986Z,93.30
2019-01-14T14:03:19.270Z,93.80
2019-01-14T14:05:50.600Z,93.40
2019-01-14T14:08:22.000Z,93.20
2019-01-14T14:10:53.426Z,93.30
2019-01-14T14:13:24.826Z,93.20
2019-01-14T14:15:56.126Z,93.10
2019-01-14T14:18:27.408Z,93.00
2019-01-14T14:20:58.723Z,93.10
2019-01-14T14:23:30.004Z,92.90
2019-01-14T14:26:20.046Z,92.90
2019-01-14T14:28:51.350Z,93.00
2019-01-14T14:31:22.766Z,92.90
2019-01-14T14:33:54.106Z,93.10
2019-01-14T14:36:25.437Z,93.00
2019-01-14T14:38:56.913Z,93.10
2019-01-14T14:41:28.258Z,93.00
2019-01-14T14:43:59.664Z,92.70
2019-01-14T14:46:30.951Z,92.70
2019-01-14T14:49:02.246Z,92.70
2019-01-14T14:51:33.608Z,92.50
2019-01-14T14:54:04.875Z,92.50
2019-01-14T14:56:36.202Z,92.60
2019-01-14T14:59:07.494Z,92.50
2019-01-14T15:01:38.810Z,92.50
2019-01-14T15:04:10.087Z,92.60
2019-01-14T15:06:41.600Z,92.60
2019-01-14T15:09:12.994Z,92.60
2019-01-14T15:11:44.340Z,92.30
2019-01-14T15:14:15.918Z,92.50
2019-01-14T15:16:47.202Z,92.40
2019-01-14T15:19:18.487Z,92.40
2019-01-14T15:21:49.855Z,92.50
2019-01-14T15:24:21.136Z,92.50
2019-01-14T15:26:52.404Z,92.60
2019-01-14T15:29:23.704Z,92.70
2019-01-14T15:31:55.056Z,92.70
2019-01-14T15:34:26.371Z,92.50
2019-01-14T15:36:57.683Z,91.70
2019-01-14T15:39:28.997Z,91.00
2019-01-14T15:42:00.379Z,91.00
2019-01-14T15:44:31.741Z,91.00
2019-01-14T15:47:03.038Z,91.00
2019-01-14T15:49:34.417Z,91.10
2019-01-14T15:52:05.776Z,91.30
2019-01-14T15:54:37.201Z,91.30
2019-01-14T15:57:08.499Z,91.30
2019-01-14T15:59:40.166Z,91.30
2019-01-14T16:02:11.470Z,91.30
2019-01-14T16:04:42.760Z,91.30
2019-01-14T16:07:14.639Z,91.30
2019-01-14T16:09:45.939Z,91.20
2019-01-14T16:12:17.289Z,91.20
2019-01-14T16:14:48.573Z,91.20
2019-01-14T16:17:19.902Z,91.40
2019-01-14T16:19:51.288Z,91.40
2019-01-14T16:22:22.633Z,91.50
2019-01-14T16:24:54.215Z,92.20
2019-01-14T16:27:25.598Z,91.90
2019-01-14T16:29:57.004Z,92.00
2019-01-14T16:32:28.312Z,92.10
2019-01-14T16:34:59.589Z,92.20
2019-01-14T16:37:31.051Z,92.30
2019-01-14T16:40:05.032Z,92.40
2019-01-14T16:42:36.362Z,92.40
2019-01-14T16:45:14.887Z,92.50
2019-01-14T16:47:46.746Z,92.60
2019-01-14T16:50:18.077Z,92.60
2019-01-14T16:52:49.545Z,92.70
2019-01-14T16:55:22.767Z,92.70
2019-01-14T16:57:54.132Z,92.80
2019-01-14T17:00:25.443Z,92.80
2019-01-14T17:02:56.719Z,92.80
2019-01-14T17:05:28.057Z,92.80
2019-01-14T17:07:59.333Z,92.80
2019-01-14T17:10:31.021Z,92.80
2019-01-14T17:13:02.333Z,92.80
2019-01-14T17:15:33.610Z,92.90
2019-01-14T17:18:04.934Z,92.90
2019-01-14T17:20:36.200Z,93.00
2019-01-14T17:23:07.523Z,93.10
2019-01-14T17:25:38.906Z,93.30
2019-01-14T17:28:10.363Z,93.40
2019-01-14T17:30:43.548Z,93.60
2019-01-14T17:33:14.874Z,93.70
2019-01-14T17:35:48.850Z,93.70
2019-01-14T17:38:20.303Z,93.90
2019-01-14T17:40:51.678Z,94.00
2019-01-14T17:43:23.026Z,94.00
2019-01-14T17:45:54.469Z,94.10
2019-01-14T17:48:26.127Z,94.00
2019-01-14T17:50:57.439Z,94.00
2019-01-14T17:53:28.956Z,93.90
2019-01-14T17:56:00.349Z,94.00
2019-01-14T17:58:31.782Z,94.10
2019-01-14T18:01:03.269Z,94.10
2019-01-14T18:03:34.871Z,94.10
2019-01-14T18:06:06.266Z,94.10
2019-01-14T18:08:37.786Z,94.10
2019-01-14T18:11:09.232Z,94.10
2019-01-14T18:13:40.550Z,94.30
2019-01-14T18:16:11.865Z,94.60
2019-01-14T18:18:43.316Z,94.30
2019-01-14T18:21:14.717Z,94.30
2019-01-14T18:23:46.061Z,94.30
2019-01-14T18:26:17.359Z,94.30
2019-01-14T18:28:48.687Z,94.50
2019-01-14T18:31:20.465Z,94.70
2019-01-14T18:33:51.781Z,95.00
2019-01-14T18:36:23.212Z,95.20
2019-01-14T18:38:54.753Z,95.30
2019-01-14T18:41:26.042Z,95.70
2019-01-14T18:43:57.382Z,95.50
2019-01-14T18:46:28.656Z,95.50
2019-01-14T18:49:00.526Z,95.60
2019-01-14T18:51:31.827Z,95.70
2019-01-14T18:54:03.548Z,95.70
2019-01-14T18:56:34.850Z,95.70
2019-01-14T18:59:06.143Z,95.60
2019-01-14T19:01:37.449Z,95.30
2019-01-14T19:04:08.741Z,95.10
2019-01-14T19:06:40.072Z,95.30
2019-01-14T19:09:11.427Z,94.90
2019-01-14T19:11:42.739Z,95.00
2019-01-14T19:14:14.674Z,95.10
2019-01-14T19:16:46.017Z,95.20
2019-01-14T19:19:17.300Z,95.30
2019-01-14T19:21:48.708Z,95.30
2019-01-14T19:24:20.061Z,95.40
2019-01-14T19:26:51.337Z,95.40
2019-01-14T19:29:22.696Z,95.50
2019-01-14T19:32:12.355Z,95.50
2019-01-14T19:34:43.616Z,95.40
2019-01-14T19:37:14.927Z,95.40
2019-01-14T19:39:46.235Z,95.40
2019-01-14T19:42:17.668Z,95.50
2019-01-14T19:44:49.071Z,95.40
2019-01-14T19:47:20.368Z,95.20
2019-01-14T19:49:51.670Z,95.00
2019-01-14T19:52:22.957Z,94.80
2019-01-14T19:54:54.391Z,94.70
2019-01-14T19:57:25.650Z,94.60
2019-01-14T19:59:56.958Z,94.60
2019-01-14T20:02:28.239Z,94.60
2019-01-14T20:05:18.220Z,94.60
2019-01-14T20:07:50.403Z,94.60
2019-01-14T20:10:21.707Z,94.40
2019-01-14T20:12:52.982Z,94.30
2019-01-14T20:15:24.358Z,94.50
2019-01-14T20:17:55.829Z,94.50
2019-01-14T20:20:27.171Z,94.60
2019-01-14T20:22:58.626Z,94.80
2019-01-14T20:25:29.998Z,95.00
2019-01-14T20:28:01.276Z,95.10
2019-01-14T20:30:32.603Z,95.20
2019-01-14T20:33:03.871Z,95.20
2019-01-14T20:35:35.253Z,95.20
2019-01-14T20:38:06.675Z,95.20
2019-01-14T20:40:38.122Z,95.30
2019-01-14T20:43:09.605Z,95.30
2019-01-14T20:45:41.058Z,95.30
2019-01-14T20:48:12.401Z,95.30
2019-01-14T20:51:02.086Z,95.30
2019-01-14T20:53:33.434Z,95.30
2019-01-14T20:56:04.802Z,95.30
2019-01-14T20:58:36.147Z,95.20
2019-01-14T21:01:07.569Z,95.20
2019-01-14T21:03:38.937Z,95.20
2019-01-14T21:06:10.251Z,95.20
2019-01-14T21:08:43.483Z,95.20
2019-01-14T21:11:14.937Z,95.20
2019-01-14T21:13:46.238Z,95.20
2019-01-14T21:16:17.683Z,95.20
2019-01-14T21:18:48.999Z,95.20
2019-01-14T21:21:20.408Z,95.20
2019-01-14T21:24:10.326Z,95.20
2019-01-14T21:26:41.842Z,95.10
2019-01-14T21:29:13.144Z,95.10
2019-01-14T21:31:44.441Z,95.10
2019-01-14T21:34:16.720Z,95.00
2019-01-14T21:36:48.029Z,95.00
2019-01-14T21:39:20.184Z,95.00
2019-01-14T21:41:51.476Z,95.00
2019-01-14T21:44:22.840Z,95.00
2019-01-14T21:46:54.162Z,94.90
2019-01-14T21:49:25.480Z,94.90
2019-01-14T21:51:56.901Z,94.90
2019-01-14T21:54:28.363Z,95.00
2019-01-14T21:57:17.918Z,95.00
2019-01-14T21:59:49.349Z,95.10
2019-01-14T22:02:21.097Z,95.00
2019-01-14T22:04:53.422Z,95.10
2019-01-14T22:07:24.798Z,95.10
2019-01-14T22:09:56.130Z,95.10
2019-01-14T22:12:27.758Z,95.10
2019-01-14T22:14:59.145Z,95.00
2019-01-14T22:17:30.444Z,95.00
2019-01-14T22:20:12.155Z,95.00
2019-01-14T22:22:44.020Z,95.00
2019-01-14T22:25:17.845Z,95.00
2019-01-14T22:27:49.411Z,94.90
2019-01-14T22:30:24.670Z,95.00
2019-01-14T22:32:56.159Z,95.00
2019-01-14T22:35:27.504Z,95.00
2019-01-14T22:37:58.795Z,95.00
2019-01-14T22:40:30.136Z,95.00
2019-01-14T22:43:01.391Z,95.00
2019-01-14T22:45:33.053Z,95.00
2019-01-14T22:48:04.389Z,95.00
2019-01-14T22:50:35.978Z,94.90
2019-01-14T22:53:07.324Z,94.90
2019-01-14T22:55:38.799Z,95.00
2019-01-14T22:58:10.075Z,95.00
2019-01-14T23:00:57.659Z,95.00
2019-01-14T23:03:28.906Z,95.00
2019-01-14T23:06:02.293Z,95.00
2019-01-14T23:08:33.586Z,95.00
2019-01-14T23:11:05.262Z,95.00
2019-01-14T23:13:36.761Z,95.00
2019-01-14T23:16:08.152Z,95.00
2019-01-14T23:18:39.426Z,95.00
2019-01-14T23:21:11.606Z,95.00
2019-01-14T23:23:44.293Z,94.90
2019-01-14T23:26:15.669Z,94.80
2019-01-14T23:28:47.084Z,95.20
2019-01-14T23:31:18.387Z,95.00
2019-01-14T23:33:50.127Z,95.10
2019-01-14T23:36:21.851Z,95.20
2019-01-14T23:38:53.197Z,95.30
2019-01-14T23:41:24.580Z,95.40
2019-01-14T23:43:56.014Z,95.40
2019-01-14T23:46:27.321Z,95.30
2019-01-14T23:48:58.968Z,95.40
2019-01-14T23:51:30.430Z,95.40
2019-01-14T23:54:01.766Z,95.40
2019-01-14T23:56:33.056Z,95.70
2019-01-14T23:59:04.397Z,95.30
